Kontakt oss PDF Skriv ut E-post

Adresse:
Kjevik flyklubb
4657 Kjevik

E-post:
post@kjevikflyklubb.no

Webmaster
R S Løvland

Kontonummer
Flyleie: 2840.32.05259

Logo

 

 
 
METAR
2018/07/18 21:20 ENCN 182120Z AUTO 26006KT 230V300 9999 NCD 20/12 Q1014
TAF
2018/07/18 18:36 TAF TAF ENCN 181700Z 1818/1821 21010KT 9999 FEW040 BECMG 1818/1820 28007KT
LN-KFK
Operativ VFR-natt
VFR dag
03:48 - 23:19
Brannvakt
Inaktiv
Banner
Banner
Banner
Banner
Banner